createdAt,value
2023-10-26T00:00:59.757Z,99103.34
2023-10-26T00:02:01.647Z,99099.16
2023-10-26T00:03:03.738Z,99100.75
2023-10-26T00:04:06.244Z,99103.34
2023-10-26T00:05:08.945Z,99103.34
2023-10-26T00:06:10.856Z,99102.56
2023-10-26T00:07:12.967Z,99096.53
2023-10-26T00:08:15.501Z,99100.75
2023-10-26T00:09:17.331Z,99093.69
2023-10-26T00:10:19.956Z,99100.75
2023-10-26T00:11:21.867Z,99095.75
2023-10-26T00:12:23.877Z,99093.13
2023-10-26T00:13:25.893Z,99095.75
2023-10-26T00:14:27.734Z,99095.75
2023-10-26T00:15:29.684Z,99095.75
2023-10-26T00:16:31.634Z,99095.75
2023-10-26T00:17:34.030Z,99089.97
2023-10-26T00:18:36.277Z,99096.78
2023-10-26T00:19:38.397Z,99093.13
2023-10-26T00:20:40.500Z,99088.16
2023-10-26T00:21:42.480Z,99084.75
2023-10-26T00:22:44.385Z,99093.38
2023-10-26T00:23:46.442Z,99093.38
2023-10-26T00:24:48.541Z,99097.81
2023-10-26T00:25:50.536Z,99091.00
2023-10-26T00:26:52.582Z,99084.97
2023-10-26T00:27:54.677Z,99093.59
2023-10-26T00:28:56.547Z,99086.22
2023-10-26T00:29:58.484Z,99088.81
2023-10-26T00:31:00.438Z,99092.47
2023-10-26T00:32:02.405Z,99088.03
2023-10-26T00:33:04.850Z,99079.41
2023-10-26T00:34:07.166Z,99083.59
2023-10-26T00:35:10.149Z,99085.41
2023-10-26T00:36:12.182Z,99081.22
2023-10-26T00:37:14.183Z,99080.44
2023-10-26T00:38:16.046Z,99079.66
2023-10-26T00:39:19.091Z,99074.41
2023-10-26T00:40:21.238Z,99072.59
2023-10-26T00:41:23.108Z,99076.00
2023-10-26T00:42:26.178Z,99081.47
2023-10-26T00:43:28.143Z,99077.81
2023-10-26T00:44:30.592Z,99066.59
2023-10-26T00:45:36.610Z,99072.84
2023-10-26T00:46:39.199Z,99072.00
2023-10-26T00:47:42.163Z,99069.41
2023-10-26T00:48:44.337Z,99063.41
2023-10-26T00:49:46.800Z,99069.41
2023-10-26T00:50:50.823Z,99071.22
2023-10-26T00:52:00.225Z,99067.81
2023-10-26T00:53:03.093Z,99067.81
2023-10-26T00:54:06.892Z,99063.88
2023-10-26T00:55:10.201Z,99065.69
2023-10-26T00:56:15.309Z,99058.63
2023-10-26T00:57:23.289Z,99062.47
2023-10-26T00:58:27.323Z,99062.72
2023-10-26T00:59:31.419Z,99054.88
2023-10-26T01:00:34.140Z,99056.47
2023-10-26T01:01:36.142Z,99058.28
2023-10-26T01:02:39.642Z,99046.50
2023-10-26T01:03:43.117Z,99058.75
2023-10-26T01:04:45.363Z,99049.91
2023-10-26T01:05:47.670Z,99048.09
2023-10-26T01:06:49.710Z,99048.09
2023-10-26T01:07:51.604Z,99046.25
2023-10-26T01:08:54.229Z,99044.69
2023-10-26T01:09:58.274Z,99049.09
2023-10-26T01:11:01.011Z,99045.72
2023-10-26T01:12:03.373Z,99050.13
2023-10-26T01:13:05.743Z,99042.31
2023-10-26T01:14:09.390Z,99037.63
2023-10-26T01:15:12.446Z,99036.28
2023-10-26T01:16:16.384Z,99031.28
2023-10-26T01:17:18.782Z,99042.50
2023-10-26T01:18:21.724Z,99040.94
2023-10-26T01:19:42.489Z,99037.53
2023-10-26T01:20:44.570Z,99028.09
2023-10-26T01:21:54.883Z,99031.50
2023-10-26T01:22:56.839Z,99023.13
2023-10-26T01:23:59.320Z,99025.94
2023-10-26T01:25:01.367Z,99028.00
2023-10-26T01:26:03.399Z,99018.34
2023-10-26T01:27:06.588Z,99028.47
2023-10-26T01:28:08.542Z,99024.22
2023-10-26T01:29:10.942Z,99025.25
2023-10-26T01:30:14.208Z,99029.69
2023-10-26T01:31:17.916Z,99023.69
2023-10-26T01:32:19.869Z,99023.13
2023-10-26T01:33:22.300Z,99025.72
2023-10-26T01:34:25.243Z,99025.72
2023-10-26T01:35:27.600Z,99020.16
2023-10-26T01:36:29.814Z,99022.75
2023-10-26T01:37:31.758Z,99023.78
2023-10-26T01:38:34.060Z,99018.00
2023-10-26T01:39:35.915Z,99017.41
2023-10-26T01:40:37.797Z,99025.84
2023-10-26T01:41:39.729Z,99013.00
2023-10-26T01:42:41.696Z,99021.66
2023-10-26T01:43:43.645Z,99017.22
2023-10-26T01:44:45.802Z,99023.22
2023-10-26T01:45:47.850Z,99013.81
2023-10-26T01:46:49.845Z,99014.81
2023-10-26T01:47:53.139Z,99025.84
2023-10-26T01:48:55.456Z,99015.59
2023-10-26T01:49:57.507Z,99008.81
2023-10-26T01:50:59.438Z,99012.44
2023-10-26T01:52:01.371Z,99010.06
2023-10-26T01:53:03.320Z,99012.44
2023-10-26T01:54:05.660Z,99010.84
2023-10-26T01:55:08.623Z,99008.00
2023-10-26T01:56:10.588Z,99014.03
2023-10-26T01:57:12.759Z,99010.63
2023-10-26T01:58:15.455Z,99009.28
2023-10-26T01:59:17.428Z,99008.69
2023-10-26T02:00:19.785Z,99005.50
2023-10-26T02:01:21.883Z,99005.19
2023-10-26T02:02:23.806Z,99005.19
2023-10-26T02:03:25.753Z,99009.16
2023-10-26T02:04:27.705Z,99002.13
2023-10-26T02:05:29.685Z,99003.94
2023-10-26T02:06:31.784Z,99007.09
2023-10-26T02:07:34.556Z,99004.72
2023-10-26T02:08:36.701Z,99009.16
2023-10-26T02:09:38.823Z,98999.75
2023-10-26T02:10:42.432Z,99001.31
2023-10-26T02:11:45.177Z,98997.94
2023-10-26T02:12:48.582Z,99001.56
2023-10-26T02:13:51.238Z,98996.91
2023-10-26T02:14:53.391Z,98987.50
2023-10-26T02:15:55.321Z,98999.50
2023-10-26T02:16:57.170Z,98998.47
2023-10-26T02:17:59.153Z,98999.28
2023-10-26T02:19:01.283Z,99001.88
2023-10-26T02:20:03.531Z,98996.66
2023-10-26T02:21:07.050Z,99000.31
2023-10-26T02:22:09.081Z,98995.09
2023-10-26T02:23:11.364Z,98991.69
2023-10-26T02:24:13.332Z,98994.84
2023-10-26T02:25:18.056Z,98989.88
2023-10-26T02:26:19.937Z,98992.47
2023-10-26T02:27:22.088Z,98992.47
2023-10-26T02:28:24.554Z,98987.50
2023-10-26T02:29:26.738Z,98995.31
2023-10-26T02:30:28.676Z,98980.47
2023-10-26T02:31:30.604Z,98989.88
2023-10-26T02:32:33.272Z,98987.81
2023-10-26T02:33:35.292Z,98983.41
2023-10-26T02:34:38.379Z,98991.25
2023-10-26T02:35:42.929Z,98978.41
2023-10-26T02:36:44.985Z,98987.81
2023-10-26T02:37:46.917Z,98983.41
2023-10-26T02:38:49.147Z,98984.78
2023-10-26T02:39:51.151Z,98985.56
2023-10-26T02:40:53.085Z,98982.94
2023-10-26T02:41:55.020Z,98987.94
2023-10-26T02:42:56.894Z,98994.97
2023-10-26T02:43:58.796Z,98984.53
2023-10-26T02:45:00.741Z,98977.72
2023-10-26T02:46:07.403Z,98975.91
2023-10-26T02:47:09.278Z,98986.34
2023-10-26T02:48:11.260Z,98979.56
2023-10-26T02:49:13.214Z,98977.72
2023-10-26T02:50:15.125Z,98974.88
2023-10-26T02:51:17.057Z,98977.50
2023-10-26T02:52:18.937Z,98981.69
2023-10-26T02:53:20.816Z,98973.88
2023-10-26T02:54:22.895Z,98977.28
2023-10-26T02:55:26.156Z,98975.47
2023-10-26T02:56:28.004Z,98973.66
2023-10-26T02:57:29.940Z,98968.66
2023-10-26T02:58:31.920Z,98972.06
2023-10-26T02:59:33.890Z,98972.06
2023-10-26T03:00:35.784Z,98973.88
2023-10-26T03:01:37.721Z,98964.44
2023-10-26T03:02:40.492Z,98972.28
2023-10-26T03:03:42.536Z,98968.88
2023-10-26T03:04:44.793Z,98971.50
2023-10-26T03:05:46.956Z,98974.09
2023-10-26T03:06:48.812Z,98970.47
2023-10-26T03:07:51.856Z,98965.25
2023-10-26T03:08:53.907Z,98974.44
2023-10-26T03:09:56.046Z,98961.63
2023-10-26T03:10:57.942Z,98970.25
2023-10-26T03:11:59.833Z,98973.44
2023-10-26T03:13:01.778Z,98963.78
2023-10-26T03:14:05.396Z,98969.00
2023-10-26T03:15:08.956Z,98964.34
2023-10-26T03:16:11.423Z,98968.75
2023-10-26T03:17:16.389Z,98966.75
2023-10-26T03:18:19.787Z,98973.53
2023-10-26T03:19:21.797Z,98964.69
2023-10-26T03:20:23.834Z,98970.69
2023-10-26T03:21:25.850Z,98969.13
2023-10-26T03:22:27.762Z,98968.09
2023-10-26T03:23:29.709Z,98974.09
2023-10-26T03:24:31.745Z,98965.72
2023-10-26T03:25:33.724Z,98970.69
2023-10-26T03:26:35.591Z,98969.13
2023-10-26T03:27:37.499Z,98966.28
2023-10-26T03:28:39.376Z,98975.91
2023-10-26T03:29:41.301Z,98975.91
2023-10-26T03:30:43.217Z,98975.69
2023-10-26T03:31:45.244Z,98974.66
2023-10-26T03:32:47.315Z,98968.66
2023-10-26T03:33:50.184Z,98972.03
2023-10-26T03:34:53.457Z,98971.25
2023-10-26T03:35:55.423Z,98968.09
2023-10-26T03:36:57.359Z,98973.06
2023-10-26T03:37:59.281Z,98969.66
2023-10-26T03:39:01.231Z,98969.91
2023-10-26T03:40:07.925Z,98976.72
2023-10-26T03:41:10.357Z,98971.50
2023-10-26T03:42:13.189Z,98976.72
2023-10-26T03:43:15.175Z,98977.72
2023-10-26T03:44:17.609Z,98971.72
2023-10-26T03:45:19.851Z,98965.94
2023-10-26T03:46:21.877Z,98966.94
2023-10-26T03:47:23.760Z,98975.56
2023-10-26T03:48:25.732Z,98971.59
2023-10-26T03:49:27.743Z,98970.03
2023-10-26T03:50:29.676Z,98966.63
2023-10-26T03:51:31.656Z,98969.66
2023-10-26T03:52:33.549Z,98963.09
2023-10-26T03:53:35.688Z,98962.06
2023-10-26T03:54:37.700Z,98966.50
2023-10-26T03:55:39.537Z,98965.72
2023-10-26T03:56:41.476Z,98964.13
2023-10-26T03:57:44.716Z,98964.94
2023-10-26T03:58:46.645Z,98965.94
2023-10-26T03:59:48.567Z,98954.38
2023-10-26T04:00:52.469Z,98957.53
2023-10-26T04:01:54.376Z,98959.34
2023-10-26T04:02:56.398Z,98957.78
2023-10-26T04:03:58.290Z,98961.16
2023-10-26T04:05:00.526Z,98957.78
2023-10-26T04:06:02.452Z,98954.38
2023-10-26T04:07:04.521Z,98949.38
2023-10-26T04:08:07.671Z,98960.38
2023-10-26T04:09:09.666Z,98961.41
2023-10-26T04:10:11.625Z,98952.00
2023-10-26T04:11:19.728Z,98956.97
2023-10-26T04:12:21.676Z,98956.97
2023-10-26T04:13:23.633Z,98953.34
2023-10-26T04:14:26.509Z,98953.34
2023-10-26T04:15:29.131Z,98951.53
2023-10-26T04:16:32.392Z,98957.34
2023-10-26T04:17:35.200Z,98956.50
2023-10-26T04:18:37.215Z,98950.50
2023-10-26T04:19:39.530Z,98950.84
2023-10-26T04:20:41.443Z,98953.47
2023-10-26T04:21:43.548Z,98953.47
2023-10-26T04:22:45.453Z,98958.69
2023-10-26T04:23:47.323Z,98946.44
2023-10-26T04:24:49.209Z,98950.84
2023-10-26T04:25:55.136Z,98950.63
2023-10-26T04:26:57.342Z,98951.41
2023-10-26T04:27:59.220Z,98947.22
2023-10-26T04:29:01.158Z,98949.81
2023-10-26T04:30:03.280Z,98954.81
2023-10-26T04:31:06.030Z,98948.59
2023-10-26T04:32:09.464Z,98946.78
2023-10-26T04:33:11.511Z,98938.94
2023-10-26T04:34:13.424Z,98950.97
2023-10-26T04:35:15.500Z,98946.53
2023-10-26T04:36:17.582Z,98946.53
2023-10-26T04:37:19.531Z,98940.31
2023-10-26T04:38:21.469Z,98942.69
2023-10-26T04:39:23.521Z,98944.25
2023-10-26T04:40:25.438Z,98939.03
2023-10-26T04:41:27.328Z,98940.66
2023-10-26T04:42:29.279Z,98937.25
2023-10-26T04:43:31.251Z,98937.25
2023-10-26T04:44:33.563Z,98940.84
2023-10-26T04:45:36.533Z,98936.44
2023-10-26T04:46:38.385Z,98934.84
2023-10-26T04:47:40.379Z,98940.06
2023-10-26T04:48:42.373Z,98933.03
2023-10-26T04:49:44.373Z,98934.84
2023-10-26T04:50:48.033Z,98935.44
2023-10-26T04:51:49.980Z,98935.44
2023-10-26T04:52:52.669Z,98932.81
2023-10-26T04:53:54.828Z,98939.63
2023-10-26T04:54:56.715Z,98937.81
2023-10-26T04:55:58.610Z,98937.00
2023-10-26T04:57:00.484Z,98934.41
2023-10-26T04:58:04.334Z,98937.81
2023-10-26T04:59:06.274Z,98931.78
2023-10-26T05:00:10.550Z,98929.19
2023-10-26T05:01:12.601Z,98934.41
2023-10-26T05:02:14.605Z,98929.97
2023-10-26T05:03:16.532Z,98926.56
2023-10-26T05:04:18.486Z,98923.63
2023-10-26T05:05:20.753Z,98935.63
2023-10-26T05:06:22.827Z,98931.69
2023-10-26T05:07:24.842Z,98930.09
2023-10-26T05:08:26.742Z,98933.72
2023-10-26T05:09:28.687Z,98936.34
2023-10-26T05:10:30.612Z,98933.16
2023-10-26T05:11:33.777Z,98929.19
2023-10-26T05:12:35.667Z,98932.81
2023-10-26T05:13:37.610Z,98934.84
2023-10-26T05:14:40.257Z,98928.28
2023-10-26T05:15:45.224Z,98932.47
2023-10-26T05:16:47.139Z,98932.72
2023-10-26T05:17:49.199Z,98932.94
2023-10-26T05:18:51.263Z,98927.13
2023-10-26T05:19:53.197Z,98932.34
2023-10-26T05:20:55.175Z,98940.97
2023-10-26T05:21:57.067Z,98936.78
2023-10-26T05:22:59.040Z,98930.78
2023-10-26T05:24:00.909Z,98934.19
2023-10-26T05:25:05.913Z,98928.41
2023-10-26T05:26:07.891Z,98927.63
2023-10-26T05:27:09.770Z,98928.41
2023-10-26T05:28:11.712Z,98926.59
2023-10-26T05:29:13.625Z,98934.66
2023-10-26T05:30:15.576Z,98930.22
2023-10-26T05:31:17.567Z,98926.81
2023-10-26T05:32:19.542Z,98928.41
2023-10-26T05:33:21.689Z,98928.41
2023-10-26T05:34:23.909Z,98930.22
2023-10-26T05:35:25.811Z,98933.63
2023-10-26T05:36:27.749Z,98935.44
2023-10-26T05:37:29.704Z,98926.81
2023-10-26T05:38:31.652Z,98935.44
2023-10-26T05:39:33.841Z,98932.03
2023-10-26T05:40:35.926Z,98929.19
2023-10-26T05:41:37.768Z,98930.78
2023-10-26T05:42:39.645Z,98923.50
2023-10-26T05:43:41.827Z,98924.09
2023-10-26T05:44:43.884Z,98928.06
2023-10-26T05:45:45.897Z,98929.44
2023-10-26T05:46:47.806Z,98924.78
2023-10-26T05:47:56.560Z,98922.72
2023-10-26T05:48:58.588Z,98926.34
2023-10-26T05:50:01.245Z,98929.50
2023-10-26T05:51:03.743Z,98931.13
2023-10-26T05:52:06.257Z,98926.91
2023-10-26T05:53:08.873Z,98931.34
2023-10-26T05:54:11.446Z,98934.97
2023-10-26T05:55:14.397Z,98937.34
2023-10-26T05:56:16.396Z,98931.34
2023-10-26T05:57:18.248Z,98934.97
2023-10-26T05:58:20.170Z,98938.38
2023-10-26T05:59:22.926Z,98929.97
2023-10-26T06:00:27.052Z,98937.03
2023-10-26T06:01:29.042Z,98936.00
2023-10-26T06:02:30.986Z,98944.84
2023-10-26T06:03:32.892Z,98941.44
2023-10-26T06:04:34.942Z,98942.25
2023-10-26T06:05:36.776Z,98941.44
2023-10-26T06:06:38.775Z,98932.81
2023-10-26T06:07:40.730Z,98937.25
2023-10-26T06:08:42.657Z,98942.69
2023-10-26T06:09:44.610Z,98942.69
2023-10-26T06:10:46.457Z,98944.28
2023-10-26T06:11:48.395Z,98947.69
2023-10-26T06:12:50.256Z,98943.25
2023-10-26T06:13:53.104Z,98947.44
2023-10-26T06:14:54.995Z,98946.91
2023-10-26T06:15:56.972Z,98950.31
2023-10-26T06:16:58.857Z,98945.28
2023-10-26T06:18:00.766Z,98945.53
2023-10-26T06:19:02.698Z,98945.75
2023-10-26T06:20:05.421Z,98949.59
2023-10-26T06:21:08.411Z,98952.19
2023-10-26T06:22:10.654Z,98949.81
2023-10-26T06:23:12.569Z,98957.41
2023-10-26T06:24:14.600Z,98949.59
2023-10-26T06:25:16.621Z,98956.63
2023-10-26T06:26:18.464Z,98958.25
2023-10-26T06:27:20.849Z,98958.25
2023-10-26T06:28:22.839Z,98956.41
2023-10-26T06:29:24.751Z,98963.22
2023-10-26T06:30:26.718Z,98963.22
2023-10-26T06:31:28.661Z,98962.19
2023-10-26T06:32:30.600Z,98958.78
2023-10-26T06:33:32.495Z,98958.00
2023-10-26T06:34:34.490Z,98956.97
2023-10-26T06:35:36.298Z,98955.16
2023-10-26T06:36:38.312Z,98955.16
2023-10-26T06:37:40.232Z,98951.28
2023-10-26T06:38:42.429Z,98952.91
2023-10-26T06:39:44.274Z,98948.69
2023-10-26T06:40:48.184Z,98953.69
2023-10-26T06:41:50.238Z,98949.72
2023-10-26T06:42:52.582Z,98952.31
2023-10-26T06:43:54.503Z,98955.94
2023-10-26T06:44:56.534Z,98956.75
2023-10-26T06:46:02.748Z,98953.59
2023-10-26T06:47:05.098Z,98956.75
2023-10-26T06:48:07.096Z,98957.53
2023-10-26T06:49:26.704Z,98957.53
2023-10-26T06:50:30.894Z,98959.13
2023-10-26T06:51:32.782Z,98961.72
2023-10-26T06:52:34.639Z,98958.13
2023-10-26T06:53:36.643Z,98958.91
2023-10-26T06:54:40.586Z,98967.78
2023-10-26T06:55:43.936Z,98957.53
2023-10-26T06:56:45.841Z,98965.16
2023-10-26T06:57:47.764Z,98960.16
2023-10-26T06:58:49.786Z,98957.78
2023-10-26T06:59:51.750Z,98956.75
2023-10-26T07:00:54.179Z,98965.38
2023-10-26T07:02:08.538Z,98961.97
2023-10-26T07:03:12.865Z,98966.94
2023-10-26T07:04:14.891Z,98967.97
2023-10-26T07:05:17.712Z,98966.94
2023-10-26T07:06:20.185Z,98968.56
2023-10-26T07:07:22.916Z,98968.56
2023-10-26T07:08:24.947Z,98975.78
2023-10-26T07:09:27.103Z,98974.56
2023-10-26T07:10:29.355Z,98976.94
2023-10-26T07:11:31.305Z,98975.34
2023-10-26T07:12:33.207Z,98975.13
2023-10-26T07:13:35.824Z,98975.34
2023-10-26T07:14:38.066Z,98970.69
2023-10-26T07:15:40.271Z,98979.31
2023-10-26T07:16:42.270Z,98979.09
2023-10-26T07:17:44.720Z,98983.50
2023-10-26T07:18:46.730Z,98980.91
2023-10-26T07:19:48.868Z,98982.50
2023-10-26T07:20:51.925Z,98983.31
2023-10-26T07:21:53.827Z,98988.72
2023-10-26T07:22:55.658Z,98991.13
2023-10-26T07:23:57.528Z,98984.31
2023-10-26T07:24:59.424Z,98989.31
2023-10-26T07:26:01.981Z,98991.69
2023-10-26T07:27:04.414Z,98990.91
2023-10-26T07:28:06.418Z,98992.25
2023-10-26T07:29:08.315Z,98989.44
2023-10-26T07:30:12.772Z,98990.44
2023-10-26T07:31:21.176Z,98987.81
2023-10-26T07:32:23.476Z,98990.66
2023-10-26T07:33:26.095Z,98990.66
2023-10-26T07:34:28.082Z,98994.06
2023-10-26T07:35:29.999Z,98985.44
2023-10-26T07:36:32.109Z,98993.81
2023-10-26T07:37:34.117Z,98998.06
2023-10-26T07:38:37.616Z,98996.44
2023-10-26T07:39:44.415Z,98993.63
2023-10-26T07:40:54.106Z,98996.22
2023-10-26T07:42:06.715Z,98997.03
2023-10-26T07:43:10.202Z,98998.84
2023-10-26T07:44:12.108Z,99002.00
2023-10-26T07:45:14.126Z,99001.44
2023-10-26T07:46:16.062Z,99000.19
2023-10-26T07:47:17.969Z,99000.97
2023-10-26T07:48:20.007Z,99000.19
2023-10-26T07:49:21.946Z,99005.41
2023-10-26T07:50:23.946Z,99002.56
2023-10-26T07:51:25.898Z,99003.59
2023-10-26T07:52:27.871Z,98999.16
2023-10-26T07:53:30.021Z,98999.97
2023-10-26T07:54:32.007Z,99007.78
2023-10-26T07:55:34.686Z,99001.78
2023-10-26T07:56:39.505Z,99008.38
2023-10-26T07:57:44.256Z,99005.97
2023-10-26T07:58:46.197Z,99008.56
2023-10-26T07:59:48.318Z,99008.38
2023-10-26T08:00:50.276Z,99005.53
2023-10-26T08:01:52.322Z,99003.94
2023-10-26T08:02:54.411Z,99012.34
2023-10-26T08:03:56.331Z,99011.53
2023-10-26T08:04:58.267Z,99017.56
2023-10-26T08:06:03.900Z,99007.91
2023-10-26T08:07:05.796Z,99014.72
2023-10-26T08:08:07.774Z,99013.13
2023-10-26T08:09:09.755Z,99012.09
2023-10-26T08:10:11.866Z,99018.94
2023-10-26T08:11:15.634Z,99011.09
2023-10-26T08:12:17.789Z,99012.69
2023-10-26T08:13:19.905Z,99008.03
2023-10-26T08:14:31.468Z,99011.41
2023-10-26T08:16:09.640Z,99008.25
2023-10-26T08:17:06.247Z,99017.44
2023-10-26T08:18:08.438Z,99015.63
2023-10-26T08:19:10.655Z,99018.81
2023-10-26T08:20:13.318Z,99028.22
2023-10-26T08:21:15.294Z,99022.22
2023-10-26T08:22:17.182Z,99018.03
2023-10-26T08:23:20.738Z,99019.38
2023-10-26T08:24:22.701Z,99025.16
2023-10-26T08:25:25.964Z,99023.56
2023-10-26T08:26:28.370Z,99031.41
2023-10-26T08:27:32.438Z,99025.38
2023-10-26T08:28:38.465Z,99030.59
2023-10-26T08:29:40.707Z,99034.59
2023-10-26T08:30:43.666Z,99029.38
2023-10-26T08:31:45.678Z,99021.31
2023-10-26T08:32:50.579Z,99029.94
2023-10-26T08:33:52.653Z,99033.34
2023-10-26T08:34:54.560Z,99033.88
2023-10-26T08:35:56.633Z,99033.09
2023-10-26T08:37:13.193Z,99038.66
2023-10-26T08:38:16.395Z,99039.47
2023-10-26T08:39:19.038Z,99038.44
2023-10-26T08:40:21.664Z,99037.41
2023-10-26T08:41:23.801Z,99040.00
2023-10-26T08:42:26.094Z,99044.78
2023-10-26T08:43:30.620Z,99045.59
2023-10-26T08:44:33.584Z,99044.00
2023-10-26T08:45:37.865Z,99044.78
2023-10-26T08:46:40.719Z,99046.63
2023-10-26T08:47:44.906Z,99036.72
2023-10-26T08:48:51.439Z,99044.56
2023-10-26T08:50:12.284Z,99045.34
2023-10-26T08:51:17.864Z,99041.16
2023-10-26T08:52:19.894Z,99055.56
2023-10-26T08:53:21.941Z,99048.53
2023-10-26T08:54:24.344Z,99048.53
2023-10-26T08:55:27.018Z,99055.13
2023-10-26T08:56:29.430Z,99047.06
2023-10-26T08:57:31.326Z,99052.28
2023-10-26T08:58:33.592Z,99050.44
2023-10-26T08:59:37.099Z,99053.84
2023-10-26T09:00:41.764Z,99055.44
2023-10-26T09:01:49.987Z,99060.44
2023-10-26T09:02:52.584Z,99059.44
2023-10-26T09:03:54.882Z,99055.78
2023-10-26T09:05:05.640Z,99056.34
2023-10-26T09:06:07.771Z,99058.94
2023-10-26T09:07:09.969Z,99062.16
2023-10-26T09:08:21.667Z,99062.72
2023-10-26T09:09:24.056Z,99056.94
2023-10-26T09:10:33.519Z,99060.69
2023-10-26T09:11:35.476Z,99060.09
2023-10-26T09:12:38.363Z,99072.16
2023-10-26T09:13:40.253Z,99066.09
2023-10-26T09:14:59.383Z,99065.13
2023-10-26T09:16:01.644Z,99065.91
2023-10-26T09:17:04.986Z,99065.13
2023-10-26T09:18:10.732Z,99069.66
2023-10-26T09:19:17.992Z,99068.41
2023-10-26T09:20:22.468Z,99070.56
2023-10-26T09:21:24.350Z,99074.75
2023-10-26T09:22:40.225Z,99076.56
2023-10-26T09:23:43.112Z,99067.16
2023-10-26T09:24:45.479Z,99068.97
2023-10-26T09:26:04.377Z,99072.63
2023-10-26T09:27:06.472Z,99077.59
2023-10-26T09:28:10.679Z,99073.19
2023-10-26T09:29:12.569Z,99070.56
2023-10-26T09:30:29.794Z,99073.19
2023-10-26T09:31:32.049Z,99070.31
2023-10-26T09:32:37.726Z,99059.88
2023-10-26T09:33:40.741Z,99068.50
2023-10-26T09:34:46.607Z,99073.28
2023-10-26T09:35:48.890Z,99072.25
2023-10-26T09:37:06.414Z,99070.69
2023-10-26T09:38:08.773Z,99071.47
2023-10-26T09:39:10.983Z,99077.25
2023-10-26T09:40:16.941Z,99076.44
2023-10-26T09:41:21.152Z,99073.84
2023-10-26T09:42:25.076Z,99077.47
2023-10-26T09:43:27.011Z,99073.84
2023-10-26T09:44:33.061Z,99081.69
2023-10-26T09:45:36.448Z,99082.69
2023-10-26T09:46:39.131Z,99086.91
2023-10-26T09:47:41.592Z,99077.47
2023-10-26T09:48:44.059Z,99082.47
2023-10-26T09:49:46.717Z,99080.66
2023-10-26T09:50:50.152Z,99081.69
2023-10-26T09:51:53.651Z,99085.66
2023-10-26T09:52:58.643Z,99092.69
2023-10-26T09:54:05.739Z,99089.84
2023-10-26T09:55:11.518Z,99081.44
2023-10-26T09:56:24.816Z,99087.69
2023-10-26T09:57:39.936Z,99092.91
2023-10-26T09:58:43.524Z,99097.13
2023-10-26T09:59:54.514Z,99098.94
2023-10-26T10:00:56.484Z,99086.66
2023-10-26T10:01:58.559Z,99091.69
2023-10-26T10:03:18.157Z,99091.69
2023-10-26T10:04:38.843Z,99093.03
2023-10-26T10:05:48.052Z,99093.59
2023-10-26T10:06:59.864Z,99093.59
2023-10-26T10:08:02.051Z,99092.00
2023-10-26T10:09:04.271Z,99090.19
2023-10-26T10:10:09.315Z,99090.97
2023-10-26T10:11:18.741Z,99090.19
2023-10-26T10:12:26.955Z,99090.19
2023-10-26T10:13:38.939Z,99089.38
2023-10-26T10:14:49.891Z,99086.31
2023-10-26T10:15:51.886Z,99087.56
2023-10-26T10:16:54.778Z,99087.38
2023-10-26T10:17:59.469Z,99089.97
2023-10-26T10:19:21.841Z,99095.19
2023-10-26T10:20:23.609Z,99095.19
2023-10-26T10:21:37.737Z,99088.16
2023-10-26T10:22:51.318Z,99094.97
2023-10-26T10:23:53.244Z,99095.75
2023-10-26T10:24:55.272Z,99091.56
2023-10-26T10:26:05.765Z,99094.72
2023-10-26T10:27:19.295Z,99094.97
2023-10-26T10:28:21.737Z,99098.13
2023-10-26T10:29:24.099Z,99099.94
2023-10-26T10:30:47.138Z,99090.28
2023-10-26T10:31:49.143Z,99097.09
2023-10-26T10:32:53.145Z,99098.91
2023-10-26T10:34:06.780Z,99093.69
2023-10-26T10:35:28.252Z,99092.09
2023-10-26T10:36:30.354Z,99092.91
2023-10-26T10:37:32.248Z,99093.69
2023-10-26T10:38:34.213Z,99094.47
2023-10-26T10:39:36.297Z,99098.47
2023-10-26T10:40:39.753Z,99095.84
2023-10-26T10:41:42.407Z,99097.44
2023-10-26T10:42:51.001Z,99089.59
2023-10-26T10:43:59.275Z,99093.81
2023-10-26T10:45:03.743Z,99090.16
2023-10-26T10:46:21.437Z,99096.19
2023-10-26T10:47:29.941Z,99091.75
2023-10-26T10:48:32.005Z,99098.34
2023-10-26T10:49:34.323Z,99090.50
2023-10-26T10:50:36.573Z,99089.72
2023-10-26T10:51:42.413Z,99089.47
2023-10-26T10:52:44.802Z,99097.88
2023-10-26T10:53:51.932Z,99091.06
2023-10-26T10:55:04.677Z,99090.81
2023-10-26T10:56:07.498Z,99087.41
2023-10-26T10:57:09.460Z,99090.81
2023-10-26T10:58:11.544Z,99095.25
2023-10-26T10:59:24.701Z,99092.66
2023-10-26T11:00:52.152Z,99090.28
2023-10-26T11:02:14.560Z,99080.84
2023-10-26T11:03:21.574Z,99088.91
2023-10-26T11:04:23.981Z,99091.28
2023-10-26T11:05:41.219Z,99091.06
2023-10-26T11:06:50.865Z,99093.91
2023-10-26T11:07:53.989Z,99089.47
2023-10-26T11:08:55.892Z,99089.47
2023-10-26T11:10:04.129Z,99093.44
2023-10-26T11:11:06.232Z,99097.66
2023-10-26T11:12:13.002Z,99093.66
2023-10-26T11:13:21.513Z,99094.47
2023-10-26T11:14:23.903Z,99097.06
2023-10-26T11:15:39.025Z,99099.44
2023-10-26T11:16:45.207Z,99102.31
2023-10-26T11:17:48.967Z,99095.72
2023-10-26T11:18:51.160Z,99090.75
2023-10-26T11:19:54.776Z,99095.50
2023-10-26T11:20:56.710Z,99094.69
2023-10-26T11:22:05.276Z,99094.94
2023-10-26T11:23:10.540Z,99090.16
2023-10-26T11:24:19.150Z,99094.34
2023-10-26T11:25:28.411Z,99096.19
2023-10-26T11:26:30.324Z,99101.41
2023-10-26T11:27:38.703Z,99099.81
2023-10-26T11:28:41.934Z,99100.63
2023-10-26T11:30:01.036Z,99097.22
2023-10-26T11:31:03.163Z,99104.50
2023-10-26T11:32:22.234Z,99104.50
2023-10-26T11:33:40.534Z,99099.50
2023-10-26T11:35:10.728Z,99096.31
2023-10-26T11:36:14.445Z,99105.53
2023-10-26T11:37:16.560Z,99108.94
2023-10-26T11:38:18.531Z,99107.09
2023-10-26T11:39:20.909Z,99111.31
2023-10-26T11:40:33.132Z,99112.66
2023-10-26T11:41:35.217Z,99111.66
2023-10-26T11:42:53.174Z,99107.22
2023-10-26T11:43:57.306Z,99113.22
2023-10-26T11:44:59.141Z,99109.81
2023-10-26T11:46:04.214Z,99111.16
2023-10-26T11:47:06.439Z,99108.56
2023-10-26T11:48:08.336Z,99106.97
2023-10-26T11:49:10.225Z,99104.13
2023-10-26T11:50:27.240Z,99105.50
2023-10-26T11:51:30.382Z,99108.91
2023-10-26T11:52:32.387Z,99116.50
2023-10-26T11:53:35.748Z,99113.91
2023-10-26T11:54:37.963Z,99118.09
2023-10-26T11:55:39.938Z,99112.88
2023-10-26T11:56:41.895Z,99120.47
2023-10-26T11:57:43.908Z,99110.00
2023-10-26T11:58:45.866Z,99114.22
2023-10-26T11:59:47.785Z,99113.66
2023-10-26T12:00:49.708Z,99121.50
2023-10-26T12:01:51.736Z,99118.66
2023-10-26T12:02:58.777Z,99119.69
2023-10-26T12:04:00.879Z,99118.88
2023-10-26T12:05:04.234Z,99126.28
2023-10-26T12:06:06.690Z,99129.69
2023-10-26T12:07:08.802Z,99126.28
2023-10-26T12:08:10.701Z,99121.84
2023-10-26T12:09:14.632Z,99121.84
2023-10-26T12:10:20.111Z,99126.03
2023-10-26T12:11:22.030Z,99125.81
2023-10-26T12:12:24.089Z,99127.38
2023-10-26T12:13:25.974Z,99126.34
2023-10-26T12:14:27.851Z,99126.34
2023-10-26T12:15:31.283Z,99129.78
2023-10-26T12:16:33.712Z,99129.56
2023-10-26T12:17:36.966Z,99120.91
2023-10-26T12:18:39.319Z,99128.75
2023-10-26T12:19:41.262Z,99121.94
2023-10-26T12:20:43.229Z,99125.34
2023-10-26T12:21:45.223Z,99137.63
2023-10-26T12:22:53.223Z,99134.78
2023-10-26T12:23:55.873Z,99132.16
2023-10-26T12:24:57.841Z,99134.78
2023-10-26T12:26:00.081Z,99132.16
2023-10-26T12:27:02.064Z,99134.19
2023-10-26T12:28:20.270Z,99131.81